sensor_id;sensor_type;location;lat;lon;timestamp;pressure;altitude;pressure_sealevel;temperature;humidity
68634;BME280;55625;47.072;22.192;2024-02-15T00:00:16;100479.09;;;-0.63;100.00
68634;BME280;55625;47.072;22.192;2024-02-15T00:02:43;100475.06;;;-0.66;100.00
68634;BME280;55625;47.072;22.192;2024-02-15T00:05:12;100482.59;;;-0.66;100.00
68634;BME280;55625;47.072;22.192;2024-02-15T00:07:40;100490.16;;;-0.67;100.00
68634;BME280;55625;47.072;22.192;2024-02-15T00:10:07;100482.00;;;-0.59;100.00
68634;BME280;55625;47.072;22.192;2024-02-15T00:12:34;100489.56;;;-0.60;100.00
68634;BME280;55625;47.072;22.192;2024-02-15T00:15:01;100492.50;;;-0.53;100.00
68634;BME280;55625;47.072;22.192;2024-02-15T00:17:28;100490.53;;;-0.52;100.00
68634;BME280;55625;47.072;22.192;2024-02-15T00:19:55;100489.91;;;-0.46;100.00
68634;BME280;55625;47.072;22.192;2024-02-15T00:22:21;100493.84;;;-0.47;100.00
68634;BME280;55625;47.072;22.192;2024-02-15T00:24:47;100503.13;;;-0.43;100.00
68634;BME280;55625;47.072;22.192;2024-02-15T00:27:15;100503.13;;;-0.43;100.00
68634;BME280;55625;47.072;22.192;2024-02-15T00:29:41;100507.44;;;-0.45;100.00
68634;BME280;55625;47.072;22.192;2024-02-15T00:32:09;100510.66;;;-0.43;100.00
68634;BME280;55625;47.072;22.192;2024-02-15T00:34:38;100510.66;;;-0.43;100.00
68634;BME280;55625;47.072;22.192;2024-02-15T00:37:06;100507.88;;;-0.43;100.00
68634;BME280;55625;47.072;22.192;2024-02-15T00:39:32;100516.59;;;-0.45;100.00
68634;BME280;55625;47.072;22.192;2024-02-15T00:41:59;100506.63;;;-0.46;100.00
68634;BME280;55625;47.072;22.192;2024-02-15T00:44:27;100506.63;;;-0.46;100.00
68634;BME280;55625;47.072;22.192;2024-02-15T00:46:53;100505.91;;;-0.43;100.00
68634;BME280;55625;47.072;22.192;2024-02-15T00:49:19;100508.16;;;-0.48;100.00
68634;BME280;55625;47.072;22.192;2024-02-15T00:51:48;100499.44;;;-0.47;100.00
68634;BME280;55625;47.072;22.192;2024-02-15T00:54:15;100502.22;;;-0.47;100.00
68634;BME280;55625;47.072;22.192;2024-02-15T00:56:41;100504.66;;;-0.45;100.00
68634;BME280;55625;47.072;22.192;2024-02-15T00:59:07;100491.34;;;-0.52;100.00
68634;BME280;55625;47.072;22.192;2024-02-15T01:01:33;100494.50;;;-0.53;100.00
68634;BME280;55625;47.072;22.192;2024-02-15T01:04:02;100498.38;;;-0.58;100.00
68634;BME280;55625;47.072;22.192;2024-02-15T01:06:28;100493.97;;;-0.59;100.00
68634;BME280;55625;47.072;22.192;2024-02-15T01:08:54;100495.38;;;-0.65;100.00
68634;BME280;55625;47.072;22.192;2024-02-15T01:11:20;100494.19;;;-0.64;100.00
68634;BME280;55625;47.072;22.192;2024-02-15T01:13:46;100498.88;;;-0.68;100.00
68634;BME280;55625;47.072;22.192;2024-02-15T01:16:12;100490.78;;;-0.73;100.00
68634;BME280;55625;47.072;22.192;2024-02-15T01:18:38;100494.75;;;-0.74;100.00
68634;BME280;55625;47.072;22.192;2024-02-15T01:21:04;100482.63;;;-0.82;100.00
68634;BME280;55625;47.072;22.192;2024-02-15T01:23:30;100485.84;;;-0.80;100.00
68634;BME280;55625;47.072;22.192;2024-02-15T01:25:56;100486.56;;;-0.83;100.00
68634;BME280;55625;47.072;22.192;2024-02-15T01:28:23;100489.25;;;-0.86;100.00
68634;BME280;55625;47.072;22.192;2024-02-15T01:30:49;100490.44;;;-0.87;100.00
68634;BME280;55625;47.072;22.192;2024-02-15T01:33:15;100496.72;;;-0.90;100.00
68634;BME280;55625;47.072;22.192;2024-02-15T01:35:43;100486.84;;;-0.88;100.00
68634;BME280;55625;47.072;22.192;2024-02-15T01:38:09;100493.47;;;-0.93;100.00
68634;BME280;55625;47.072;22.192;2024-02-15T01:40:36;100493.72;;;-0.98;100.00
68634;BME280;55625;47.072;22.192;2024-02-15T01:43:03;100502.78;;;-1.01;100.00
68634;BME280;55625;47.072;22.192;2024-02-15T01:45:29;100495.59;;;-1.02;100.00
68634;BME280;55625;47.072;22.192;2024-02-15T01:47:55;100490.03;;;-1.02;100.00
68634;BME280;55625;47.072;22.192;2024-02-15T01:50:23;100494.81;;;-1.02;100.00
68634;BME280;55625;47.072;22.192;2024-02-15T01:52:53;100492.38;;;-1.04;100.00
68634;BME280;55625;47.072;22.192;2024-02-15T01:55:21;100482.94;;;-0.99;100.00
68634;BME280;55625;47.072;22.192;2024-02-15T01:57:48;100486.91;;;-1.00;100.00
68634;BME280;55625;47.072;22.192;2024-02-15T02:00:18;100492.09;;;-0.99;100.00
68634;BME280;55625;47.072;22.192;2024-02-15T02:02:45;100493.28;;;-1.00;100.00
68634;BME280;55625;47.072;22.192;2024-02-15T02:05:13;100492.56;;;-0.97;100.00
68634;BME280;55625;47.072;22.192;2024-02-15T02:07:38;100488.50;;;-0.99;100.00
68634;BME280;55625;47.072;22.192;2024-02-15T02:10:06;100486.91;;;-1.00;100.00
68634;BME280;55625;47.072;22.192;2024-02-15T02:12:32;100499.75;;;-0.96;100.00
68634;BME280;55625;47.072;22.192;2024-02-15T02:14:59;100493.81;;;-0.94;100.00
68634;BME280;55625;47.072;22.192;2024-02-15T02:17:24;100488.88;;;-1.01;100.00
68634;BME280;55625;47.072;22.192;2024-02-15T02:19:50;100491.03;;;-0.94;100.00
68634;BME280;55625;47.072;22.192;2024-02-15T02:22:17;100488.81;;;-0.88;100.00
68634;BME280;55625;47.072;22.192;2024-02-15T02:25:08;100490.78;;;-0.89;100.00
68634;BME280;55625;47.072;22.192;2024-02-15T02:27:35;100491.78;;;-0.81;100.00
68634;BME280;55625;47.072;22.192;2024-02-15T02:30:04;100491.44;;;-0.80;100.00
68634;BME280;55625;47.072;22.192;2024-02-15T02:32:35;100495.28;;;-0.84;100.00
68634;BME280;55625;47.072;22.192;2024-02-15T02:35:02;100495.28;;;-0.84;100.00
68634;BME280;55625;47.072;22.192;2024-02-15T02:37:29;100494.25;;;-0.92;100.00
68634;BME280;55625;47.072;22.192;2024-02-15T02:39:55;100496.50;;;-0.98;100.00
68634;BME280;55625;47.072;22.192;2024-02-15T02:42:21;100496.50;;;-0.98;100.00
68634;BME280;55625;47.072;22.192;2024-02-15T02:44:48;100499.28;;;-0.98;100.00
68634;BME280;55625;47.072;22.192;2024-02-15T02:47:14;100499.38;;;-0.94;100.00
68634;BME280;55625;47.072;22.192;2024-02-15T02:49:40;100497.41;;;-0.94;100.00
68634;BME280;55625;47.072;22.192;2024-02-15T02:52:06;100497.22;;;-1.01;100.00
68634;BME280;55625;47.072;22.192;2024-02-15T02:54:33;100487.16;;;-1.05;100.00
68634;BME280;55625;47.072;22.192;2024-02-15T02:57:00;100489.50;;;-1.07;100.00
68634;BME280;55625;47.072;22.192;2024-02-15T02:59:26;100489.03;;;-1.09;100.00
68634;BME280;55625;47.072;22.192;2024-02-15T03:01:52;100498.91;;;-1.12;100.00
68634;BME280;55625;47.072;22.192;2024-02-15T03:04:18;100496.84;;;-1.15;100.00
68634;BME280;55625;47.072;22.192;2024-02-15T03:06:44;100492.09;;;-1.14;100.00
68634;BME280;55625;47.072;22.192;2024-02-15T03:09:11;100492.91;;;-1.14;100.00
68634;BME280;55625;47.072;22.192;2024-02-15T03:11:40;100495.59;;;-1.17;100.00
68634;BME280;55625;47.072;22.192;2024-02-15T03:14:06;100494.78;;;-1.18;100.00
68634;BME280;55625;47.072;22.192;2024-02-15T03:16:32;100495.50;;;-1.21;100.00
68634;BME280;55625;47.072;22.192;2024-02-15T03:18:59;100492.22;;;-1.23;100.00
68634;BME280;55625;47.072;22.192;2024-02-15T03:21:28;100497.56;;;-1.18;100.00
68634;BME280;55625;47.072;22.192;2024-02-15T03:23:54;100496.31;;;-1.20;100.00
68634;BME280;55625;47.072;22.192;2024-02-15T03:26:31;100502.22;;;-1.22;100.00
68634;BME280;55625;47.072;22.192;2024-02-15T03:29:03;100501.75;;;-1.24;100.00
68634;BME280;55625;47.072;22.192;2024-02-15T03:31:30;100511.25;;;-1.25;100.00
68634;BME280;55625;47.072;22.192;2024-02-15T03:33:59;100501.75;;;-1.24;100.00
68634;BME280;55625;47.072;22.192;2024-02-15T03:36:25;100510.44;;;-1.26;100.00
68634;BME280;55625;47.072;22.192;2024-02-15T03:38:51;100508.03;;;-1.27;100.00
68634;BME280;55625;47.072;22.192;2024-02-15T03:41:20;100505.16;;;-1.31;100.00
68634;BME280;55625;47.072;22.192;2024-02-15T03:43:46;100509.19;;;-1.28;100.00
68634;BME280;55625;47.072;22.192;2024-02-15T03:46:15;100502.00;;;-1.29;100.00
68634;BME280;55625;47.072;22.192;2024-02-15T03:48:43;100506.66;;;-1.33;100.00
68634;BME280;55625;47.072;22.192;2024-02-15T03:51:09;100499.13;;;-1.33;100.00
68634;BME280;55625;47.072;22.192;2024-02-15T03:53:35;100501.56;;;-1.31;100.00
68634;BME280;55625;47.072;22.192;2024-02-15T03:56:04;100496.44;;;-1.29;100.00
68634;BME280;55625;47.072;22.192;2024-02-15T03:58:30;100503.63;;;-1.28;100.00
68634;BME280;55625;47.072;22.192;2024-02-15T04:00:59;100489.00;;;-1.25;100.00
68634;BME280;55625;47.072;22.192;2024-02-15T04:03:25;100499.44;;;-1.22;100.00
68634;BME280;55625;47.072;22.192;2024-02-15T04:05:51;100504.75;;;-1.17;100.00
68634;BME280;55625;47.072;22.192;2024-02-15T04:08:18;100496.13;;;-1.12;100.00
68634;BME280;55625;47.072;22.192;2024-02-15T04:10:44;100506.38;;;-1.00;100.00
68634;BME280;55625;47.072;22.192;2024-02-15T04:13:11;100508.56;;;-0.94;100.00
68634;BME280;55625;47.072;22.192;2024-02-15T04:15:37;100506.84;;;-0.98;100.00
68634;BME280;55625;47.072;22.192;2024-02-15T04:18:04;100499.75;;;-0.96;100.00
68634;BME280;55625;47.072;22.192;2024-02-15T04:20:30;100496.50;;;-0.98;100.00
68634;BME280;55625;47.072;22.192;2024-02-15T04:22:56;100504.69;;;-1.05;100.00
68634;BME280;55625;47.072;22.192;2024-02-15T04:25:23;100512.13;;;-1.09;100.00
68634;BME280;55625;47.072;22.192;2024-02-15T04:27:53;100511.13;;;-1.16;100.00
68634;BME280;55625;47.072;22.192;2024-02-15T04:30:20;100514.03;;;-1.25;100.00
68634;BME280;55625;47.072;22.192;2024-02-15T04:32:47;100510.34;;;-1.29;100.00
68634;BME280;55625;47.072;22.192;2024-02-15T04:35:13;100514.22;;;-1.34;100.00
68634;BME280;55625;47.072;22.192;2024-02-15T04:37:39;100514.09;;;-1.37;100.00
68634;BME280;55625;47.072;22.192;2024-02-15T04:40:07;100509.59;;;-1.42;100.00
68634;BME280;55625;47.072;22.192;2024-02-15T04:42:36;100515.28;;;-1.38;100.00
68634;BME280;55625;47.072;22.192;2024-02-15T04:45:08;100518.50;;;-1.36;100.00
68634;BME280;55625;47.072;22.192;2024-02-15T04:47:35;100519.22;;;-1.39;100.00
68634;BME280;55625;47.072;22.192;2024-02-15T04:50:01;100518.66;;;-1.45;100.00
68634;BME280;55625;47.072;22.192;2024-02-15T04:52:28;100516.69;;;-1.44;100.00
68634;BME280;55625;47.072;22.192;2024-02-15T04:54:54;100513.66;;;-1.39;100.00
68634;BME280;55625;47.072;22.192;2024-02-15T04:57:20;100515.53;;;-1.43;100.00
68634;BME280;55625;47.072;22.192;2024-02-15T04:59:47;100514.38;;;-1.42;100.00
68634;BME280;55625;47.072;22.192;2024-02-15T05:02:14;100517.59;;;-1.40;100.00
68634;BME280;55625;47.072;22.192;2024-02-15T05:04:40;100523.06;;;-1.44;100.00
68634;BME280;55625;47.072;22.192;2024-02-15T05:07:11;100523.06;;;-1.44;100.00
68634;BME280;55625;47.072;22.192;2024-02-15T05:09:37;100530.34;;;-1.39;100.00
68634;BME280;55625;47.072;22.192;2024-02-15T05:12:03;100527.81;;;-1.44;100.00
68634;BME280;55625;47.072;22.192;2024-02-15T05:14:29;100530.59;;;-1.44;100.00
68634;BME280;55625;47.072;22.192;2024-02-15T05:16:55;100536.19;;;-1.44;100.00
68634;BME280;55625;47.072;22.192;2024-02-15T05:19:21;100526.22;;;-1.45;100.00
68634;BME280;55625;47.072;22.192;2024-02-15T05:21:47;100544.38;;;-1.36;100.00
68634;BME280;55625;47.072;22.192;2024-02-15T05:24:17;100544.97;;;-1.42;100.00
68634;BME280;55625;47.072;22.192;2024-02-15T05:26:46;100545.78;;;-1.42;100.00
68634;BME280;55625;47.072;22.192;2024-02-15T05:29:13;100549.03;;;-1.40;100.00
68634;BME280;55625;47.072;22.192;2024-02-15T05:31:39;100540.03;;;-1.49;100.00
68634;BME280;55625;47.072;22.192;2024-02-15T05:34:07;100551.63;;;-1.47;100.00
68634;BME280;55625;47.072;22.192;2024-02-15T05:36:34;100545.94;;;-1.50;100.00
68634;BME280;55625;47.072;22.192;2024-02-15T05:39:00;100547.09;;;-1.51;100.00
68634;BME280;55625;47.072;22.192;2024-02-15T05:41:28;100547.47;;;-1.53;100.00
68634;BME280;55625;47.072;22.192;2024-02-15T05:43:55;100560.44;;;-1.57;100.00
68634;BME280;55625;47.072;22.192;2024-02-15T05:46:23;100557.75;;;-1.53;100.00
68634;BME280;55625;47.072;22.192;2024-02-15T05:48:50;100564.25;;;-1.49;100.00
68634;BME280;55625;47.072;22.192;2024-02-15T05:51:17;100558.59;;;-1.53;100.00
68634;BME280;55625;47.072;22.192;2024-02-15T05:53:43;100556.94;;;-1.54;100.00
68634;BME280;55625;47.072;22.192;2024-02-15T05:56:10;100561.03;;;-1.51;100.00
68634;BME280;55625;47.072;22.192;2024-02-15T05:58:37;100561.38;;;-1.53;100.00
68634;BME280;55625;47.072;22.192;2024-02-15T06:01:04;100558.69;;;-1.49;100.00
68634;BME280;55625;47.072;22.192;2024-02-15T06:03:34;100565.16;;;-1.45;100.00
68634;BME280;55625;47.072;22.192;2024-02-15T06:06:04;100572.38;;;-1.44;100.00
68634;BME280;55625;47.072;22.192;2024-02-15T06:08:34;100571.31;;;-1.40;100.00
68634;BME280;55625;47.072;22.192;2024-02-15T06:11:00;100575.00;;;-1.36;100.00
68634;BME280;55625;47.072;22.192;2024-02-15T06:13:29;100567.41;;;-1.23;100.00
68634;BME280;55625;47.072;22.192;2024-02-15T06:15:56;100583.84;;;-1.06;100.00
68634;BME280;55625;47.072;22.192;2024-02-15T06:18:28;100579.50;;;-0.91;100.00
68634;BME280;55625;47.072;22.192;2024-02-15T06:20:56;100577.91;;;-0.76;100.00
68634;BME280;55625;47.072;22.192;2024-02-15T06:23:28;100584.56;;;-0.65;100.00
68634;BME280;55625;47.072;22.192;2024-02-15T06:25:56;100582.16;;;-0.51;100.00
68634;BME280;55625;47.072;22.192;2024-02-15T06:28:26;100580.72;;;-0.45;100.00
68634;BME280;55625;47.072;22.192;2024-02-15T06:31:11;100571.22;;;-0.28;100.00
68634;BME280;55625;47.072;22.192;2024-02-15T06:33:56;100576.88;;;-0.09;100.00
68634;BME280;55625;47.072;22.192;2024-02-15T06:36:53;100571.28;;;0.07;100.00
68634;BME280;55625;47.072;22.192;2024-02-15T06:39:38;100575.38;;;0.29;100.00
68634;BME280;55625;47.072;22.192;2024-02-15T06:42:07;100579.56;;;0.54;100.00
68634;BME280;55625;47.072;22.192;2024-02-15T06:44:34;100575.84;;;0.66;100.00
68634;BME280;55625;47.072;22.192;2024-02-15T06:47:01;100576.56;;;0.82;100.00
68634;BME280;55625;47.072;22.192;2024-02-15T06:49:26;100578.19;;;1.03;100.00
68634;BME280;55625;47.072;22.192;2024-02-15T06:51:52;100572.00;;;1.13;100.00
68634;BME280;55625;47.072;22.192;2024-02-15T06:54:19;100575.16;;;1.31;100.00
68634;BME280;55625;47.072;22.192;2024-02-15T06:56:45;100572.69;;;1.48;98.29
68634;BME280;55625;47.072;22.192;2024-02-15T06:59:13;100567.38;;;1.63;97.78
68634;BME280;55625;47.072;22.192;2024-02-15T07:01:43;100573.19;;;1.77;97.49
68634;BME280;55625;47.072;22.192;2024-02-15T07:04:09;100574.06;;;1.81;97.22
68634;BME280;55625;47.072;22.192;2024-02-15T07:06:39;100570.91;;;1.82;97.48
68634;BME280;55625;47.072;22.192;2024-02-15T07:09:06;100584.72;;;1.95;96.64
68634;BME280;55625;47.072;22.192;2024-02-15T07:11:35;100585.00;;;2.12;96.46
68634;BME280;55625;47.072;22.192;2024-02-15T07:14:02;100581.63;;;2.26;95.06
68634;BME280;55625;47.072;22.192;2024-02-15T07:16:30;100574.56;;;2.36;93.35
68634;BME280;55625;47.072;22.192;2024-02-15T07:18:56;100579.31;;;2.32;94.10
68634;BME280;55625;47.072;22.192;2024-02-15T07:21:22;100582.47;;;2.30;94.51
68634;BME280;55625;47.072;22.192;2024-02-15T07:23:55;100581.34;;;2.35;95.61
68634;BME280;55625;47.072;22.192;2024-02-15T07:26:23;100587.97;;;2.23;96.08
68634;BME280;55625;47.072;22.192;2024-02-15T07:28:52;100583.16;;;2.46;94.48
68634;BME280;55625;47.072;22.192;2024-02-15T07:31:22;100592.66;;;2.68;94.18
68634;BME280;55625;47.072;22.192;2024-02-15T07:33:50;100581.66;;;2.83;92.50
68634;BME280;55625;47.072;22.192;2024-02-15T07:36:20;100590.00;;;3.09;93.52
68634;BME280;55625;47.072;22.192;2024-02-15T07:38:50;100596.22;;;3.29;91.91
68634;BME280;55625;47.072;22.192;2024-02-15T07:41:23;100595.31;;;3.55;90.48
68634;BME280;55625;47.072;22.192;2024-02-15T07:43:50;100588.84;;;3.88;90.14
68634;BME280;55625;47.072;22.192;2024-02-15T07:46:18;100593.41;;;4.03;86.55
68634;BME280;55625;47.072;22.192;2024-02-15T07:48:44;100593.41;;;4.03;87.27
68634;BME280;55625;47.072;22.192;2024-02-15T07:51:18;100591.91;;;4.16;87.08
68634;BME280;55625;47.072;22.192;2024-02-15T07:53:44;100592.50;;;4.43;86.12
68634;BME280;55625;47.072;22.192;2024-02-15T07:56:11;100593.47;;;4.65;84.48
68634;BME280;55625;47.072;22.192;2024-02-15T07:58:48;100587.56;;;4.88;84.30
68634;BME280;55625;47.072;22.192;2024-02-15T08:01:15;100584.03;;;5.02;82.79
68634;BME280;55625;47.072;22.192;2024-02-15T08:03:42;100590.88;;;5.04;82.75
68634;BME280;55625;47.072;22.192;2024-02-15T08:06:15;100591.34;;;5.20;82.53
68634;BME280;55625;47.072;22.192;2024-02-15T08:08:44;100586.16;;;5.33;81.01
68634;BME280;55625;47.072;22.192;2024-02-15T08:11:16;100589.06;;;5.58;81.20
68634;BME280;55625;47.072;22.192;2024-02-15T08:13:51;100591.09;;;5.72;80.29
68634;BME280;55625;47.072;22.192;2024-02-15T08:16:22;100594.34;;;5.84;81.05
68634;BME280;55625;47.072;22.192;2024-02-15T08:18:49;100595.56;;;6.05;79.25
68634;BME280;55625;47.072;22.192;2024-02-15T08:21:18;100594.81;;;6.15;77.61
68634;BME280;55625;47.072;22.192;2024-02-15T08:23:50;100602.03;;;6.30;76.82
68634;BME280;55625;47.072;22.192;2024-02-15T08:26:16;100589.97;;;6.44;77.12
68634;BME280;55625;47.072;22.192;2024-02-15T08:28:42;100593.53;;;6.69;75.38
68634;BME280;55625;47.072;22.192;2024-02-15T08:31:08;100594.31;;;6.70;75.15
68634;BME280;55625;47.072;22.192;2024-02-15T08:33:35;100582.25;;;6.69;75.40
68634;BME280;55625;47.072;22.192;2024-02-15T08:36:02;100592.63;;;7.11;74.98
68634;BME280;55625;47.072;22.192;2024-02-15T08:38:28;100592.41;;;7.54;74.42
68634;BME280;55625;47.072;22.192;2024-02-15T08:40:54;100585.81;;;7.78;73.42
68634;BME280;55625;47.072;22.192;2024-02-15T08:43:20;100577.59;;;8.02;72.25
68634;BME280;55625;47.072;22.192;2024-02-15T08:45:46;100587.16;;;8.15;70.82
68634;BME280;55625;47.072;22.192;2024-02-15T08:48:12;100587.91;;;8.23;68.01
68634;BME280;55625;47.072;22.192;2024-02-15T08:50:39;100586.78;;;8.13;67.91
68634;BME280;55625;47.072;22.192;2024-02-15T08:53:05;100575.38;;;8.27;69.54
68634;BME280;55625;47.072;22.192;2024-02-15T08:55:32;100580.44;;;8.50;67.50
68634;BME280;55625;47.072;22.192;2024-02-15T08:58:01;100575.31;;;8.76;69.50
68634;BME280;55625;47.072;22.192;2024-02-15T09:00:31;100582.63;;;9.11;66.05
68634;BME280;55625;47.072;22.192;2024-02-15T09:02:57;100578.72;;;9.31;65.27
68634;BME280;55625;47.072;22.192;2024-02-15T09:05:23;100577.66;;;9.49;63.92
68634;BME280;55625;47.072;22.192;2024-02-15T09:07:50;100573.38;;;9.68;63.13
68634;BME280;55625;47.072;22.192;2024-02-15T09:10:17;100573.97;;;9.82;62.57
68634;BME280;55625;47.072;22.192;2024-02-15T09:12:44;100583.91;;;9.94;61.88
68634;BME280;55625;47.072;22.192;2024-02-15T09:15:12;100581.84;;;9.98;61.41
68634;BME280;55625;47.072;22.192;2024-02-15T09:17:39;100594.78;;;9.99;61.58
68634;BME280;55625;47.072;22.192;2024-02-15T09:20:11;100592.53;;;10.14;60.98
68634;BME280;55625;47.072;22.192;2024-02-15T09:22:52;100589.63;;;10.17;58.98
68634;BME280;55625;47.072;22.192;2024-02-15T09:25:19;100592.81;;;10.23;59.17
68634;BME280;55625;47.072;22.192;2024-02-15T09:27:45;100588.63;;;10.54;60.65
68634;BME280;55625;47.072;22.192;2024-02-15T09:30:12;100598.31;;;10.57;58.63
68634;BME280;55625;47.072;22.192;2024-02-15T09:32:42;100597.81;;;10.62;55.60
68634;BME280;55625;47.072;22.192;2024-02-15T09:35:10;100591.09;;;10.76;59.84
68634;BME280;55625;47.072;22.192;2024-02-15T09:37:48;100589.88;;;10.97;58.46
68634;BME280;55625;47.072;22.192;2024-02-15T09:40:15;100599.56;;;10.99;55.93
68634;BME280;55625;47.072;22.192;2024-02-15T09:42:46;100598.66;;;11.06;55.75
68634;BME280;55625;47.072;22.192;2024-02-15T09:45:13;100589.31;;;11.25;57.46
68634;BME280;55625;47.072;22.192;2024-02-15T09:47:41;100589.22;;;11.48;56.26
68634;BME280;55625;47.072;22.192;2024-02-15T09:50:12;100575.94;;;11.62;52.85
68634;BME280;55625;47.072;22.192;2024-02-15T09:52:49;100572.38;;;11.58;53.09
68634;BME280;55625;47.072;22.192;2024-02-15T09:55:35;100571.63;;;11.73;55.55
68634;BME280;55625;47.072;22.192;2024-02-15T09:58:02;100572.66;;;11.83;54.93
68634;BME280;55625;47.072;22.192;2024-02-15T10:00:31;100564.28;;;11.92;54.75
68634;BME280;55625;47.072;22.192;2024-02-15T10:02:59;100561.00;;;11.94;54.76
68634;BME280;55625;47.072;22.192;2024-02-15T10:05:27;100557.66;;;11.99;54.29
68634;BME280;55625;47.072;22.192;2024-02-15T10:07:53;100567.25;;;12.21;54.18
68634;BME280;55625;47.072;22.192;2024-02-15T10:10:24;100561.66;;;12.34;53.18
68634;BME280;55625;47.072;22.192;2024-02-15T10:12:53;100563.69;;;12.50;53.85
68634;BME280;55625;47.072;22.192;2024-02-15T10:15:31;100561.44;;;12.73;53.31
68634;BME280;55625;47.072;22.192;2024-02-15T10:17:58;100551.63;;;12.91;52.20
68634;BME280;55625;47.072;22.192;2024-02-15T10:20:25;100553.84;;;13.12;52.12
68634;BME280;55625;47.072;22.192;2024-02-15T10:25:27;100548.47;;;13.30;51.28
68634;BME280;55625;47.072;22.192;2024-02-15T10:28:07;100552.84;;;13.48;50.81
68634;BME280;55625;47.072;22.192;2024-02-15T10:30:41;100540.50;;;13.38;50.38
68634;BME280;55625;47.072;22.192;2024-02-15T10:33:26;100532.97;;;13.31;49.99
68634;BME280;55625;47.072;22.192;2024-02-15T10:36:07;100542.41;;;13.28;50.13
68634;BME280;55625;47.072;22.192;2024-02-15T10:38:34;100538.09;;;13.36;49.57
68634;BME280;55625;47.072;22.192;2024-02-15T10:41:08;100532.28;;;13.40;49.96
68634;BME280;55625;47.072;22.192;2024-02-15T10:43:36;100536.59;;;13.32;48.66
68634;BME280;55625;47.072;22.192;2024-02-15T10:46:05;100534.94;;;13.47;49.17
68634;BME280;55625;47.072;22.192;2024-02-15T10:48:36;100532.44;;;13.49;48.84
68634;BME280;55625;47.072;22.192;2024-02-15T10:51:04;100529.66;;;13.46;49.79
68634;BME280;55625;47.072;22.192;2024-02-15T10:53:33;100530.59;;;13.55;48.63
68634;BME280;55625;47.072;22.192;2024-02-15T10:56:18;100522.06;;;13.68;49.41
68634;BME280;55625;47.072;22.192;2024-02-15T10:59:19;100517.38;;;13.49;46.18
68634;BME280;55625;47.072;22.192;2024-02-15T11:01:46;100523.72;;;13.40;45.87
68634;BME280;55625;47.072;22.192;2024-02-15T11:04:18;100514.16;;;13.05;48.36
68634;BME280;55625;47.072;22.192;2024-02-15T11:06:48;100518.81;;;13.41;49.09
68634;BME280;55625;47.072;22.192;2024-02-15T11:09:16;100517.38;;;13.49;46.90
68634;BME280;55625;47.072;22.192;2024-02-15T11:11:43;100512.34;;;13.53;48.96
68634;BME280;55625;47.072;22.192;2024-02-15T11:14:32;100508.69;;;13.65;48.73
68634;BME280;55625;47.072;22.192;2024-02-15T11:17:00;100509.38;;;13.69;49.12
68634;BME280;55625;47.072;22.192;2024-02-15T11:22:02;100501.63;;;13.57;47.94
68634;BME280;55625;47.072;22.192;2024-02-15T11:24:35;100500.81;;;13.69;47.94
68634;BME280;55625;47.072;22.192;2024-02-15T11:27:05;100498.19;;;13.75;46.33
68634;BME280;55625;47.072;22.192;2024-02-15T11:29:56;100490.34;;;13.79;47.79
68634;BME280;55625;47.072;22.192;2024-02-15T11:32:49;100490.56;;;13.72;46.86
68634;BME280;55625;47.072;22.192;2024-02-15T11:35:25;100485.84;;;13.27;48.67
68634;BME280;55625;47.072;22.192;2024-02-15T11:37:56;100488.03;;;12.94;48.82
68634;BME280;55625;47.072;22.192;2024-02-15T11:40:28;100487.09;;;12.55;50.16
68634;BME280;55625;47.072;22.192;2024-02-15T11:42:58;100484.41;;;12.48;51.86
68634;BME280;55625;47.072;22.192;2024-02-15T11:45:29;100488.56;;;12.15;51.56
68634;BME280;55625;47.072;22.192;2024-02-15T11:48:11;100488.78;;;12.53;50.66
68634;BME280;55625;47.072;22.192;2024-02-15T11:50:39;100481.28;;;12.13;49.92
68634;BME280;55625;47.072;22.192;2024-02-15T11:53:07;100474.88;;;12.26;51.29
68634;BME280;55625;47.072;22.192;2024-02-15T11:55:37;100478.16;;;12.69;52.01
68634;BME280;55625;47.072;22.192;2024-02-15T11:58:04;100476.94;;;12.54;50.87
68634;BME280;55625;47.072;22.192;2024-02-15T12:00:42;100471.34;;;12.80;51.40
68634;BME280;55625;47.072;22.192;2024-02-15T12:03:27;100468.00;;;13.10;50.49
68634;BME280;55625;47.072;22.192;2024-02-15T12:06:11;100463.56;;;13.09;49.04
68634;BME280;55625;47.072;22.192;2024-02-15T12:08:56;100471.94;;;12.87;47.59
68634;BME280;55625;47.072;22.192;2024-02-15T12:11:41;100469.81;;;13.04;48.32
68634;BME280;55625;47.072;22.192;2024-02-15T12:14:26;100460.09;;;13.18;47.42
68634;BME280;55625;47.072;22.192;2024-02-15T12:17:12;100478.50;;;13.13;47.58
68634;BME280;55625;47.072;22.192;2024-02-15T12:20:02;100466.94;;;13.20;47.28
68634;BME280;55625;47.072;22.192;2024-02-15T12:22:40;100460.28;;;12.82;46.15
68634;BME280;55625;47.072;22.192;2024-02-15T12:25:12;100452.03;;;13.00;47.68
68634;BME280;55625;47.072;22.192;2024-02-15T12:27:46;100460.78;;;13.22;46.93
68634;BME280;55625;47.072;22.192;2024-02-15T12:30:17;100455.78;;;12.55;45.99
68634;BME280;55625;47.072;22.192;2024-02-15T12:32:51;100450.94;;;12.52;47.21
68634;BME280;55625;47.072;22.192;2024-02-15T12:35:22;100451.25;;;12.41;47.70
68634;BME280;55625;47.072;22.192;2024-02-15T12:38:09;100442.72;;;12.70;48.43
68634;BME280;55625;47.072;22.192;2024-02-15T12:40:39;100454.34;;;12.47;47.90
68634;BME280;55625;47.072;22.192;2024-02-15T12:43:07;100450.22;;;12.64;46.85
68634;BME280;55625;47.072;22.192;2024-02-15T12:45:37;100446.81;;;12.69;47.75
68634;BME280;55625;47.072;22.192;2024-02-15T12:48:06;100441.41;;;12.88;48.78
68634;BME280;55625;47.072;22.192;2024-02-15T12:50:33;100445.56;;;12.70;49.09